Time;durP1;ratioP1;P1;durP2;ratioP2;P2;SDS_P1;SDS_P2;PMS_P1;PMS_P2;Temp;Humidity;BMP_temperature;BMP_pressure;BME280_temperature;BME280_humidity;BME280_pressure;Samples;Min_cycle;Max_cycle;Signal;HPM_P1;HPM_P2
2022/10/25 00:01:17;;;;;;;13.83;8.63;;;11.70;99.90;;;;;;10494705;28;20217;-85
2022/10/25 00:06:38;;;;;;;16.80;9.47;;;11.60;99.90;;;;;;10493644;28;20229;-80
2022/10/25 00:11:59;;;;;;;15.07;9.27;;;11.60;99.90;;;;;;10480599;28;20209;-79
2022/10/25 00:17:20;;;;;;;18.13;9.07;;;11.70;99.90;;;;;;10464958;28;20225;-87
2022/10/25 00:22:41;;;;;;;13.07;8.50;;;11.80;99.90;;;;;;10479005;28;20230;-86
2022/10/25 00:28:03;;;;;;;18.07;8.10;;;11.90;99.90;;;;;;10507687;28;20221;-79
2022/10/25 00:33:25;;;;;;;14.70;9.67;;;11.90;99.90;;;;;;10478906;28;20237;-85
2022/10/25 00:38:46;;;;;;;12.40;8.27;;;12.00;99.90;;;;;;10492907;28;20238;-83
2022/10/25 00:44:39;;;;;;;12.30;8.60;;;12.00;99.90;;;;;;10494940;28;20200;-79
2022/10/25 00:50:15;;;;;;;18.00;10.23;;;12.00;99.90;;;;;;10492446;28;20509;-79
2022/10/25 00:55:44;;;;;;;18.93;10.00;;;12.00;99.90;;;;;;10478552;28;20197;-82
2022/10/25 01:01:07;;;;;;;15.97;9.13;;;12.10;99.90;;;;;;10482239;28;20205;-83
2022/10/25 01:06:50;;;;;;;12.90;8.00;;;12.10;99.90;;;;;;10510027;28;20280;-82
2022/10/25 01:12:11;;;;;;;14.33;8.17;;;12.10;99.90;;;;;;10496094;28;20204;-86
2022/10/25 01:17:41;;;;;;;13.00;8.77;;;12.10;99.90;;;;;;10476484;28;20216;-81
2022/10/25 01:23:27;;;;;;;11.83;8.47;;;12.10;99.90;;;;;;10494072;28;20201;-79
2022/10/25 01:29:11;;;;;;;13.13;7.87;;;12.10;99.90;;;;;;10491932;28;20240;-84
2022/10/25 01:34:44;;;;;;;13.57;7.13;;;12.10;99.90;;;;;;10494033;28;20229;-86
2022/10/25 01:40:22;;;;;;;12.10;6.93;;;12.10;99.90;;;;;;10492312;28;20350;-80
2022/10/25 01:46:11;;;;;;;13.50;8.40;;;12.10;99.90;;;;;;10462889;28;20233;-80
2022/10/25 01:51:36;;;;;;;14.67;7.87;;;12.10;99.90;;;;;;10325199;28;20211;-86
2022/10/25 01:57:06;;;;;;;11.43;7.80;;;12.10;99.90;;;;;;10349505;28;20218;-85
2022/10/25 02:02:59;;;;;;;12.53;7.13;;;12.20;99.90;;;;;;10332311;28;20205;-79
2022/10/25 02:08:40;;;;;;;12.67;8.70;;;12.20;99.90;;;;;;10348521;28;20538;-84
2022/10/25 02:14:21;;;;;;;12.57;7.83;;;12.20;99.90;;;;;;10358900;28;20265;-86
2022/10/25 02:19:50;;;;;;;16.33;8.60;;;12.20;99.90;;;;;;10342106;28;20298;-80
2022/10/25 02:25:12;;;;;;;12.83;7.97;;;12.20;99.90;;;;;;10369930;28;20217;-80
2022/10/25 02:30:35;;;;;;;17.20;7.47;;;12.10;99.90;;;;;;10428165;28;20228;-85
2022/10/25 02:36:18;;;;;;;11.30;7.10;;;12.20;99.90;;;;;;10442314;28;20278;-80
2022/10/25 02:41:39;;;;;;;9.30;6.40;;;12.10;99.90;;;;;;10433464;28;20193;-80
2022/10/25 02:47:01;;;;;;;14.80;7.50;;;12.10;99.90;;;;;;10466921;28;20398;-80
2022/10/25 02:52:22;;;;;;;14.43;7.23;;;12.20;99.90;;;;;;10482374;28;20196;-81
2022/10/25 02:57:43;;;;;;;12.70;7.30;;;12.10;99.90;;;;;;10496509;28;20196;-80
2022/10/25 03:03:05;;;;;;;14.13;7.90;;;12.10;99.90;;;;;;10496265;28;20188;-80
2022/10/25 03:08:26;;;;;;;11.00;7.83;;;12.10;99.90;;;;;;10481556;28;20243;-79
2022/10/25 03:13:52;;;;;;;12.63;8.03;;;12.00;99.90;;;;;;10514996;28;20200;-81
2022/10/25 03:19:13;;;;;;;13.30;7.47;;;12.00;99.90;;;;;;10482935;28;20206;-87
2022/10/25 03:24:34;;;;;;;17.03;6.87;;;12.00;99.90;;;;;;10498341;28;20206;-86
2022/10/25 03:29:55;;;;;;;15.37;8.70;;;12.00;99.90;;;;;;10481113;28;20521;-84
2022/10/25 03:35:16;;;;;;;9.67;7.23;;;12.00;99.90;;;;;;10514679;28;20278;-86
2022/10/25 03:40:37;;;;;;;9.97;6.87;;;12.00;99.90;;;;;;10481442;28;20480;-79
2022/10/25 03:45:58;;;;;;;7.40;5.60;;;11.90;99.90;;;;;;10511499;28;20197;-86
2022/10/25 03:51:20;;;;;;;14.63;7.30;;;11.90;99.90;;;;;;10509314;28;20442;-84
2022/10/25 03:56:41;;;;;;;12.83;6.60;;;11.80;99.90;;;;;;10481229;28;20264;-80
2022/10/25 04:02:02;;;;;;;10.20;7.83;;;11.80;99.90;;;;;;10494154;28;20492;-80
2022/10/25 04:07:23;;;;;;;10.50;8.07;;;11.80;99.90;;;;;;10491368;28;20216;-84
2022/10/25 04:12:48;;;;;;;11.77;8.47;;;11.80;99.90;;;;;;10479560;28;20204;-80
2022/10/25 04:18:09;;;;;;;11.50;9.37;;;11.80;99.90;;;;;;10464381;28;20547;-80
2022/10/25 04:23:30;;;;;;;14.23;8.73;;;11.80;99.90;;;;;;10496183;28;20206;-86
2022/10/25 04:28:53;;;;;;;10.57;7.93;;;11.90;99.90;;;;;;10478938;28;20277;-84
2022/10/25 04:34:14;;;;;;;9.83;6.77;;;11.80;99.90;;;;;;10494993;28;20228;-86
2022/10/25 04:39:35;;;;;;;12.83;7.03;;;11.90;99.90;;;;;;10495121;28;20200;-80
2022/10/25 04:44:57;;;;;;;13.00;7.30;;;11.80;99.90;;;;;;10478069;28;20294;-81
2022/10/25 04:50:18;;;;;;;13.97;7.03;;;11.80;99.90;;;;;;10492562;28;20395;-83
2022/10/25 04:55:39;;;;;;;11.67;7.80;;;11.80;99.90;;;;;;10511516;28;20562;-80
2022/10/25 05:01:03;;;;;;;14.60;8.53;;;11.70;99.90;;;;;;10478836;28;20194;-81
2022/10/25 05:06:26;;;;;;;19.23;13.67;;;11.60;99.90;;;;;;10505459;28;20212;-82
2022/10/25 05:11:47;;;;;;;28.07;16.87;;;11.50;99.90;;;;;;10510549;28;20211;-83
2022/10/25 05:17:09;;;;;;;15.10;11.03;;;11.50;99.90;;;;;;10463377;28;20215;-81
2022/10/25 05:22:30;;;;;;;16.23;10.17;;;11.40;99.90;;;;;;10477542;28;20198;-80
2022/10/25 05:27:51;;;;;;;22.47;10.87;;;11.40;99.90;;;;;;10493740;28;20215;-80
2022/10/25 05:33:12;;;;;;;18.80;11.40;;;11.40;99.90;;;;;;10488073;28;20238;-80
2022/10/25 05:38:33;;;;;;;27.20;18.20;;;11.30;99.90;;;;;;10490470;28;20214;-80
2022/10/25 05:43:57;;;;;;;20.83;13.87;;;11.30;99.90;;;;;;10501981;28;20181;-85
2022/10/25 05:49:18;;;;;;;16.73;8.50;;;11.30;99.90;;;;;;10505031;28;20234;-81
2022/10/25 05:54:39;;;;;;;13.47;7.27;;;11.30;99.90;;;;;;10517841;28;20380;-80
2022/10/25 06:00:01;;;;;;;11.47;7.10;;;11.30;99.90;;;;;;10515384;28;20395;-86
2022/10/25 06:05:25;;;;;;;9.33;7.27;;;11.40;99.90;;;;;;10511712;28;20373;-81
2022/10/25 06:10:46;;;;;;;15.83;6.43;;;11.40;99.90;;;;;;10488215;28;20408;-86
2022/10/25 06:16:10;;;;;;;11.27;7.03;;;11.60;99.90;;;;;;10469749;28;20243;-83
2022/10/25 06:21:32;;;;;;;13.23;7.43;;;11.60;99.90;;;;;;10497874;28;20290;-79
2022/10/25 06:26:53;;;;;;;12.67;7.53;;;11.70;99.90;;;;;;10483561;28;20225;-81
2022/10/25 06:32:13;;;;;;;10.20;7.63;;;11.60;99.90;;;;;;10497233;28;20222;-81
2022/10/25 06:37:34;;;;;;;14.33;7.63;;;11.70;99.90;;;;;;10511282;28;20267;-83
2022/10/25 06:42:56;;;;;;;11.60;8.03;;;11.80;99.90;;;;;;10472323;28;20655;-79
2022/10/25 06:48:17;;;;;;;11.07;7.00;;;11.90;99.90;;;;;;10455503;28;20238;-80
2022/10/25 06:53:38;;;;;;;13.63;7.90;;;12.30;99.90;;;;;;10443160;28;20276;-80
2022/10/25 06:59:00;;;;;;;14.63;7.07;;;12.80;99.90;;;;;;10455133;28;20201;-85
2022/10/25 07:04:21;;;;;;;13.87;7.30;;;13.30;99.90;;;;;;10441132;28;20203;-84
2022/10/25 07:09:43;;;;;;;13.17;7.43;;;13.40;99.90;;;;;;10434764;28;20657;-82
2022/10/25 07:15:04;;;;;;;19.63;12.33;;;13.20;99.90;;;;;;10490843;28;20515;-82
2022/10/25 07:20:26;;;;;;;12.23;9.50;;;13.00;99.90;;;;;;10440178;28;20282;-81
2022/10/25 07:25:47;;;;;;;19.07;8.17;;;13.00;99.90;;;;;;10457989;28;20204;-86
2022/10/25 07:31:12;;;;;;;18.50;11.30;;;12.90;99.90;;;;;;10474944;28;20507;-80
2022/10/25 07:36:33;;;;;;;18.00;11.00;;;12.90;99.90;;;;;;10453159;28;20511;-82
2022/10/25 07:41:54;;;;;;;22.40;15.23;;;12.90;99.90;;;;;;10483201;28;20252;-83
2022/10/25 07:47:15;;;;;;;17.67;10.60;;;12.90;99.90;;;;;;10475135;28;20271;-80
2022/10/25 07:52:37;;;;;;;12.23;8.17;;;13.10;99.90;;;;;;10473793;28;20201;-80
2022/10/25 07:58:03;;;;;;;15.83;9.53;;;13.20;99.90;;;;;;10474877;28;20205;-80
2022/10/25 08:03:25;;;;;;;13.35;6.03;;;;;;;;;;10476986;28;20214;-82
2022/10/25 08:08:46;;;;;;;9.88;5.63;;;;;;;;;;10478664;28;20246;-81
2022/10/25 08:14:08;;;;;;;8.50;4.97;;;;;;;;;;10453133;28;20406;-82
2022/10/25 08:19:29;;;;;;;9.13;4.20;;;;;;;;;;10433745;28;20196;-83
2022/10/25 08:24:50;;;;;;;9.02;4.18;;;;;;;;;;10435218;28;20201;-82
2022/10/25 08:30:11;;;;;;;6.97;4.38;;;18.80;99.90;;;;;;10431767;28;20240;-82
2022/10/25 08:35:33;;;;;;;7.65;4.45;;;18.80;99.90;;;;;;10431918;28;20216;-85
2022/10/25 08:41:18;;;;;;;6.85;4.30;;;18.70;99.90;;;;;;10419236;28;20396;-83
2022/10/25 08:47:06;;;;;;;7.97;5.03;;;18.00;99.90;;;;;;10428198;28;20299;-84
2022/10/25 08:52:48;;;;;;;6.10;4.75;;;17.20;99.90;;;;;;10409302;28;20251;-81
2022/10/25 08:58:21;;;;;;;6.90;5.57;;;16.50;99.90;;;;;;10390683;28;20436;-82
2022/10/25 09:03:42;;;;;;;19.20;13.23;;;16.10;99.90;;;;;;10441353;28;20193;-82
2022/10/25 09:09:08;;;;;;;14.15;6.78;;;;;;;;;;10431418;28;20240;-85
2022/10/25 09:14:57;;;;;;;10.07;6.45;;;15.50;99.90;;;;;;10437793;28;20191;-85
2022/10/25 09:20:31;;;;;;;11.90;7.47;;;15.40;99.90;;;;;;10448369;28;20225;-86
2022/10/25 09:26:22;;;;;;;13.95;7.10;;;15.20;99.90;;;;;;10432515;28;20198;-81
2022/10/25 09:31:47;;;;;;;10.82;6.90;;;15.40;99.90;;;;;;10445407;28;20234;-82
2022/10/25 09:37:31;;;;;;;8.50;6.63;;;15.20;99.90;;;;;;10430270;28;20201;-83
2022/10/25 09:43:01;;;;;;;12.33;6.87;;;15.10;99.90;;;;;;10445664;28;20196;-83
2022/10/25 09:48:28;;;;;;;16.05;7.30;;;14.90;99.90;;;;;;10445314;28;20246;-87
2022/10/25 09:53:50;;;;;;;8.87;6.30;;;14.60;99.90;;;;;;10418038;28;20207;-82
2022/10/25 09:59:15;;;;;;;12.47;6.97;;;14.70;99.90;;;;;;10436055;28;20204;-93
2022/10/25 10:04:37;;;;;;;12.40;6.33;;;14.70;99.90;;;;;;10410347;28;20283;-80
2022/10/25 10:10:01;;;;;;;16.15;4.97;;;14.80;99.90;;;;;;10438724;28;20263;-82
2022/10/25 10:16:03;;;;;;;10.80;4.50;;;14.90;99.90;;;;;;10465532;28;20206;-81
2022/10/25 10:21:24;;;;;;;8.87;3.97;;;14.90;99.90;;;;;;10349965;28;20562;-80
2022/10/25 10:26:54;;;;;;;7.20;3.97;;;14.80;99.90;;;;;;10311797;28;20216;-79
2022/10/25 10:32:28;;;;;;;5.80;3.03;;;14.70;99.90;;;;;;10308813;28;20559;-82
2022/10/25 10:37:49;;;;;;;11.67;3.50;;;14.70;99.90;;;;;;10349599;28;20275;-84
2022/10/25 10:43:32;;;;;;;6.17;2.90;;;14.70;99.90;;;;;;10319403;28;20217;-83
2022/10/25 10:48:56;;;;;;;7.57;2.97;;;14.80;99.90;;;;;;10332959;28;20574;-82
2022/10/25 10:54:29;;;;;;;13.70;5.77;;;15.00;99.90;;;;;;10451241;28;20200;-81
2022/10/25 10:59:55;;;;;;;10.43;2.38;;;15.60;99.90;;;;;;10446594;28;20190;-81
2022/10/25 11:05:29;;;;;;;6.80;2.35;;;16.80;99.90;;;;;;10433820;28;20209;-81
2022/10/25 11:10:50;;;;;;;6.53;2.20;;;16.70;99.90;;;;;;10447125;28;20282;-87
2022/10/25 11:16:51;;;;;;;10.23;2.33;;;16.40;99.90;;;;;;10421588;28;20406;-83
2022/10/25 11:22:31;;;;;;;7.82;2.50;;;15.90;99.90;;;;;;10449085;28;20218;-81
2022/10/25 11:28:02;;;;;;;8.53;1.60;;;15.50;99.90;;;;;;10435486;28;20230;-82
2022/10/25 11:33:48;;;;;;;8.03;1.70;;;15.30;99.90;;;;;;10448352;28;20223;-81
2022/10/25 11:39:24;;;;;;;6.47;2.00;;;15.10;99.90;;;;;;10432215;28;20490;-82
2022/10/25 11:44:50;;;;;;;7.17;1.93;;;14.90;99.90;;;;;;10459290;28;20479;-81
2022/10/25 11:50:53;;;;;;;4.17;1.80;;;14.80;99.90;;;;;;10433689;28;20223;-81
2022/10/25 11:57:01;;;;;;;8.07;2.00;;;14.70;99.90;;;;;;10449962;28;20208;-83
2022/10/25 12:02:43;;;;;;;4.85;1.70;;;14.70;99.90;;;;;;10417726;28;20281;-81
2022/10/25 12:08:22;;;;;;;6.97;1.80;;;14.80;99.90;;;;;;10440474;28;20227;-80
2022/10/25 12:13:50;;;;;;;6.93;2.27;;;14.90;99.90;;;;;;10433581;28;20200;-81
2022/10/25 12:19:14;;;;;;;5.40;1.80;;;15.10;99.90;;;;;;10449112;28;20219;-82
2022/10/25 12:24:42;;;;;;;6.22;1.67;;;15.30;99.90;;;;;;10449431;28;20245;-82
2022/10/25 12:30:12;;;;;;;5.80;1.95;;;16.60;99.90;;;;;;10435022;28;20231;-83
2022/10/25 12:35:41;;;;;;;5.57;1.90;;;16.80;99.90;;;;;;10433435;28;20286;-82
2022/10/25 12:41:26;;;;;;;7.97;1.40;;;17.00;99.90;;;;;;10432609;28;20275;-81
2022/10/25 12:47:19;;;;;;;10.55;1.83;;;17.50;99.90;;;;;;10432265;28;20197;-81
2022/10/25 12:53:15;;;;;;;4.78;1.30;;;16.80;99.90;;;;;;10361582;28;20244;-83
2022/10/25 12:58:55;;;;;;;8.47;1.80;;;16.10;99.90;;;;;;10373339;28;20217;-82
2022/10/25 13:04:37;;;;;;;7.97;2.35;;;15.60;99.90;;;;;;10387300;28;20583;-81
2022/10/25 13:10:18;;;;;;;8.13;2.23;;;15.30;99.90;;;;;;10371860;28;20594;-80
2022/10/25 13:15:49;;;;;;;4.57;1.93;;;15.20;99.90;;;;;;10346707;28;20519;-80
2022/10/25 13:21:15;;;;;;;4.90;2.13;;;15.00;99.90;;;;;;10317278;28;20244;-80
2022/10/25 13:27:11;;;;;;;7.03;2.53;;;15.00;99.90;;;;;;10390545;28;20500;-81
2022/10/25 13:32:34;;;;;;;18.93;2.40;;;14.90;99.90;;;;;;10445920;28;20261;-82
2022/10/25 13:38:22;;;;;;;6.77;2.37;;;15.00;99.90;;;;;;10430851;28;20199;-81
2022/10/25 13:44:00;;;;;;;6.22;2.60;;;15.00;99.90;;;;;;10442790;28;20296;-83
2022/10/25 13:49:32;;;;;;;5.00;2.37;;;14.90;99.90;;;;;;10447560;28;20242;-83
2022/10/25 13:54:55;;;;;;;7.17;2.13;;;14.80;99.90;;;;;;10435720;28;20188;-81
2022/10/25 14:00:31;;;;;;;15.52;6.13;;;14.80;99.90;;;;;;10452735;28;20210;-79
2022/10/25 14:05:52;;;;;;;9.13;2.57;;;14.70;99.90;;;;;;10453678;28;20211;-83
2022/10/25 14:11:32;;;;;;;5.70;1.80;;;14.70;99.90;;;;;;10420514;28;20233;-83
2022/10/25 14:17:06;;;;;;;6.57;2.13;;;14.70;99.90;;;;;;10453235;28;20198;-81
2022/10/25 14:22:37;;;;;;;5.27;2.43;;;14.60;99.90;;;;;;10454861;28;20204;-82
2022/10/25 14:28:06;;;;;;;4.80;2.13;;;14.60;99.90;;;;;;10438109;28;20196;-85
2022/10/25 14:33:36;;;;;;;8.53;2.80;;;14.50;99.90;;;;;;10438116;28;20290;-83
2022/10/25 14:38:58;;;;;;;8.33;2.90;;;14.50;99.90;;;;;;10447222;28;20431;-82
2022/10/25 14:44:27;;;;;;;8.50;2.33;;;14.40;99.90;;;;;;10481506;28;20765;-82
2022/10/25 14:49:48;;;;;;;5.93;2.33;;;14.30;99.90;;;;;;10395098;28;20310;-82
2022/10/25 14:55:26;;;;;;;6.50;2.60;;;14.30;99.90;;;;;;10409071;28;20201;-81
2022/10/25 15:00:56;;;;;;;4.63;2.47;;;14.20;99.90;;;;;;10393486;28;20238;-80
2022/10/25 15:06:22;;;;;;;5.90;3.03;;;14.20;99.90;;;;;;10442204;28;20204;-81
2022/10/25 15:12:10;;;;;;;10.23;4.03;;;14.10;99.90;;;;;;10410858;28;20609;-82
2022/10/25 15:17:34;;;;;;;14.70;4.97;;;13.90;99.90;;;;;;10398604;28;20502;-80
2022/10/25 15:23:15;;;;;;;8.87;3.73;;;13.80;99.90;;;;;;10396042;28;20230;-79
2022/10/25 15:28:50;;;;;;;8.17;3.40;;;;;;;;;;10397791;28;20529;-80
2022/10/25 15:34:12;;;;;;;7.97;4.20;;;;;;;;;;10413307;28;20265;-80
2022/10/25 15:39:33;;;;;;;10.10;6.50;;;;;;;;;;10454488;28;20191;-80
2022/10/25 15:44:54;;;;;;;22.93;14.03;;;13.40;99.90;;;;;;10477594;28;20205;-80
2022/10/25 15:50:17;;;;;;;35.03;21.83;;;;;;;;;;10450733;28;20450;-79
2022/10/25 15:55:38;;;;;;;45.00;26.50;;;;;;;;;;10480118;28;20204;-79
2022/10/25 16:01:00;;;;;;;44.00;26.87;;;;;;;;;;10472057;28;20205;-79
2022/10/25 16:06:21;;;;;;;46.87;26.93;;;;;;;;;;10455119;28;20501;-80
2022/10/25 16:11:44;;;;;;;54.13;30.03;;;;;;;;;;10436748;28;20239;-80
2022/10/25 16:17:08;;;;;;;50.00;27.63;;;;;;;;;;10437979;28;20273;-81
2022/10/25 16:22:30;;;;;;;45.43;27.43;;;;;;;;;;10452307;28;20201;-81
2022/10/25 16:27:52;;;;;;;36.30;22.43;;;;;;;;;;10452074;28;20197;-82
2022/10/25 16:33:14;;;;;;;32.10;17.67;;;;;;;;;;10436689;28;20278;-79
2022/10/25 16:38:35;;;;;;;19.00;12.57;;;;;;;;;;10460900;28;20192;-79
2022/10/25 16:43:57;;;;;;;15.80;10.00;;;;;;;;;;10478821;28;20222;-85
2022/10/25 16:49:19;;;;;;;16.90;10.23;;;;;;;;;;10433170;28;20231;-79
2022/10/25 16:54:40;;;;;;;21.07;13.00;;;;;;;;;;10451318;28;20210;-85
2022/10/25 17:00:02;;;;;;;16.90;11.87;;;;;;;;;;10439062;28;20207;-81
2022/10/25 17:05:25;;;;;;;26.30;14.03;;;;;;;;;;10453340;28;20198;-80
2022/10/25 17:10:46;;;;;;;33.13;19.63;;;;;;;;;;10435346;28;20228;-80
2022/10/25 17:16:14;;;;;;;40.30;23.03;;;;;;;;;;10435266;28;20267;-79
2022/10/25 17:21:35;;;;;;;39.83;21.13;;;;;;;;;;10449993;28;20198;-79
2022/10/25 17:26:57;;;;;;;36.93;20.20;;;;;;;;;;10435611;28;20198;-80
2022/10/25 17:32:18;;;;;;;36.50;17.83;;;;;;;;;;10435161;28;20234;-79
2022/10/25 17:37:42;;;;;;;38.57;19.50;;;;;;;;;;10435240;28;20202;-79
2022/10/25 17:43:03;;;;;;;34.50;18.90;;;;;;;;;;10427618;28;20195;-79
2022/10/25 17:48:25;;;;;;;29.53;17.97;;;;;;;;;;10431496;28;20366;-80
2022/10/25 17:53:53;;;;;;;34.63;18.20;;;;;;;;;;10451873;28;20251;-80
2022/10/25 17:59:15;;;;;;;33.60;20.93;;;;;;;;;;10435117;28;20269;-79
2022/10/25 18:04:36;;;;;;;29.73;17.67;;;;;;;;;;10437576;28;20194;-80
2022/10/25 18:10:13;;;;;;;37.67;17.47;;;;;;;;;;10434200;28;20228;-80
2022/10/25 18:15:34;;;;;;;20.03;12.23;;;;;;;;;;10435325;28;20546;-81
2022/10/25 18:21:06;;;;;;;17.60;9.90;;;;;;;;;;10420994;28;20201;-80
2022/10/25 18:26:28;;;;;;;10.77;7.30;;;;;;;;;;10420528;28;20225;-80
2022/10/25 18:31:50;;;;;;;11.53;7.53;;;;;;;;;;10420393;28;20286;-79
2022/10/25 18:37:12;;;;;;;19.53;8.33;;;;;;;;;;10440218;28;20220;-79
2022/10/25 18:42:34;;;;;;;15.87;8.07;;;;;;;;;;10484183;28;20277;-85
2022/10/25 18:47:57;;;;;;;11.17;7.80;;;;;;;;;;10471196;28;20196;-79
2022/10/25 18:53:19;;;;;;;18.67;10.37;;;12.90;99.90;;;;;;10484352;28;20248;-80
2022/10/25 18:58:41;;;;;;;15.00;8.97;;;12.70;99.90;;;;;;10484985;28;20201;-79
2022/10/25 19:04:02;;;;;;;19.97;11.13;;;12.60;99.90;;;;;;10452247;28;20207;-80
2022/10/25 19:09:24;;;;;;;26.40;11.17;;;12.50;99.90;;;;;;10456677;28;20225;-80
2022/10/25 19:14:45;;;;;;;22.63;11.23;;;12.50;99.90;;;;;;10440434;28;20286;-80
2022/10/25 19:20:09;;;;;;;28.53;13.60;;;12.50;99.90;;;;;;10456614;28;20221;-79
2022/10/25 19:25:31;;;;;;;13.80;9.13;;;;;;;;;;10456285;28;20194;-78
2022/10/25 19:30:52;;;;;;;17.00;8.47;;;;;;;;;;10439620;28;20516;-78
2022/10/25 19:36:14;;;;;;;13.97;7.60;;;;;;;;;;10453729;28;20194;-79
2022/10/25 19:41:36;;;;;;;10.73;7.20;;;12.60;99.90;;;;;;10469719;28;20451;-78
2022/10/25 19:46:57;;;;;;;19.70;11.10;;;12.50;99.90;;;;;;10454631;28;20394;-81
2022/10/25 19:52:18;;;;;;;23.07;11.53;;;12.40;99.90;;;;;;10439217;28;20221;-79
2022/10/25 19:57:39;;;;;;;23.07;11.37;;;12.30;99.90;;;;;;10439859;28;20240;-79
2022/10/25 20:03:02;;;;;;;28.60;13.43;;;;;;;;;;10455091;28;20205;-80
2022/10/25 20:08:24;;;;;;;37.27;14.27;;;;;;;;;;10437632;28;20516;-80
2022/10/25 20:13:45;;;;;;;33.40;14.83;;;;;;;;;;10439012;28;20298;-79
2022/10/25 20:19:07;;;;;;;36.87;14.63;;;;;;;;;;10452132;28;20186;-80
2022/10/25 20:24:29;;;;;;;31.43;14.43;;;;;;;;;;10437454;28;20224;-81
2022/10/25 20:29:51;;;;;;;32.70;15.73;;;;;;;;;;10451980;28;20220;-80
2022/10/25 20:35:12;;;;;;;35.80;13.17;;;;;;;;;;10437407;28;20225;-79
2022/10/25 20:40:34;;;;;;;25.07;11.57;;;;;;;;;;10460932;28;20275;-79
2022/10/25 20:45:55;;;;;;;19.97;10.30;;;;;;;;;;10429592;28;20351;-80
2022/10/25 20:51:16;;;;;;;31.17;13.17;;;;;;;;;;10452112;28;20221;-79
2022/10/25 20:56:38;;;;;;;25.27;10.77;;;;;;;;;;10437140;28;20219;-79
2022/10/25 21:02:00;;;;;;;21.97;11.60;;;;;;;;;;10453261;28;20200;-79
2022/10/25 21:07:21;;;;;;;23.37;10.33;;;;;;;;;;10450106;28;20206;-79
2022/10/25 21:12:43;;;;;;;24.33;10.27;;;;;;;;;;10406599;28;20221;-80
2022/10/25 21:18:04;;;;;;;25.30;11.37;;;;;;;;;;10450673;28;20190;-80
2022/10/25 21:23:26;;;;;;;20.33;9.97;;;;;;;;;;10436198;28;20194;-80
2022/10/25 21:28:47;;;;;;;18.77;8.73;;;;;;;;;;10438643;28;20203;-80
2022/10/25 21:34:09;;;;;;;21.03;7.90;;;;;;;;;;10450110;28;20414;-81
2022/10/25 21:39:30;;;;;;;16.10;8.93;;;;;;;;;;10450091;28;20191;-80
2022/10/25 21:44:51;;;;;;;27.30;11.53;;;;;;;;;;10436973;28;20195;-80
2022/10/25 21:50:14;;;;;;;16.93;8.67;;;;;;;;;;10449620;28;20223;-79
2022/10/25 21:55:36;;;;;;;12.57;7.37;;;;;;;;;;10435333;28;20242;-81
2022/10/25 22:00:57;;;;;;;14.27;6.30;;;;;;;;;;10435486;28;20192;-79
2022/10/25 22:06:19;;;;;;;14.03;7.13;;;;;;;;;;10437667;28;20237;-81
2022/10/25 22:11:43;;;;;;;15.87;9.50;;;;;;;;;;10439975;28;20237;-80
2022/10/25 22:17:04;;;;;;;15.33;8.17;;;11.60;99.90;;;;;;10445788;28;20200;-82
2022/10/25 22:22:27;;;;;;;22.87;12.07;;;;;;;;;;10457148;28;20195;-83
2022/10/25 22:27:49;;;;;;;32.97;13.57;;;;;;;;;;10442625;28;20209;-81
2022/10/25 22:33:11;;;;;;;16.07;8.30;;;;;;;;;;10442093;28;20314;-80
2022/10/25 22:38:35;;;;;;;17.17;8.77;;;;;;;;;;10475211;28;20258;-80
2022/10/25 22:43:57;;;;;;;20.43;9.83;;;11.50;99.90;;;;;;10444441;28;20205;-80
2022/10/25 22:49:20;;;;;;;18.53;9.53;;;;;;;;;;10441338;28;20193;-79
2022/10/25 22:54:43;;;;;;;13.43;7.83;;;;;;;;;;10441339;28;20453;-80
2022/10/25 23:00:06;;;;;;;19.03;8.60;;;;;;;;;;10460335;28;20495;-80
2022/10/25 23:05:27;;;;;;;19.13;8.97;;;;;;;;;;10440725;28;20210;-79
2022/10/25 23:10:49;;;;;;;11.87;8.47;;;;;;;;;;10454292;28;20227;-80
2022/10/25 23:16:11;;;;;;;11.83;8.77;;;;;;;;;;10424777;28;20195;-80
2022/10/25 23:21:34;;;;;;;14.33;8.77;;;;;;;;;;10455327;28;20421;-80
2022/10/25 23:26:55;;;;;;;12.03;8.93;;;;;;;;;;10466366;28;20223;-81
2022/10/25 23:32:17;;;;;;;12.17;8.23;;;;;;;;;;10453721;28;20229;-80
2022/10/25 23:37:38;;;;;;;13.83;8.40;;;;;;;;;;10439947;28;20193;-80
2022/10/25 23:43:01;;;;;;;18.30;9.03;;;;;;;;;;10415927;28;20195;-80
2022/10/25 23:48:25;;;;;;;13.57;9.47;;;;;;;;;;10425229;28;20192;-81
2022/10/25 23:53:47;;;;;;;15.60;10.03;;;;;;;;;;10439933;28;20227;-80
2022/10/25 23:59:11;;;;;;;19.07;11.03;;;;;;;;;;10455614;28;20207;-84
